Time;durP1;ratioP1;P1;durP2;ratioP2;P2;SDS_P1;SDS_P2;PMS_P1;PMS_P2;Temp;Humidity;BMP_temperature;BMP_pressure;BME280_temperature;BME280_humidity;BME280_pressure;Samples;Min_cycle;Max_cycle;Signal;HPM_P1;HPM_P2
2022/01/12 00:00:28;;;;;;;69.20;23.35;;;2.70;99.90;;;;;;4805949;29;20058;-84
2022/01/12 00:02:54;;;;;;;68.55;23.65;;;2.70;99.90;;;;;;4817909;29;20054;-86
2022/01/12 00:05:20;;;;;;;66.82;23.60;;;2.70;99.90;;;;;;4833366;29;20049;-86
2022/01/12 00:07:49;;;;;;;64.45;22.92;;;2.70;99.90;;;;;;4828801;29;20089;-85
2022/01/12 00:10:17;;;;;;;70.22;25.33;;;2.70;99.90;;;;;;4832986;29;20086;-84
2022/01/12 00:12:42;;;;;;;70.55;24.98;;;2.70;99.90;;;;;;4826845;29;20049;-84
2022/01/12 00:15:08;;;;;;;82.45;28.63;;;2.70;99.90;;;;;;4839034;29;20046;-84
2022/01/12 00:17:34;;;;;;;;;;;2.70;99.90;;;;;;4825300;29;20058;-89
2022/01/12 00:20:00;;;;;;;81.30;27.23;;;2.70;99.90;;;;;;4837354;29;20019;-85
2022/01/12 00:22:27;;;;;;;77.68;25.42;;;2.70;99.90;;;;;;4837546;29;20111;-85
2022/01/12 00:35:35;;;;;;;86.20;25.02;;;2.80;99.90;;;;;;4828665;29;20118;-87
2022/01/12 00:38:00;;;;;;;79.43;24.98;;;2.40;99.90;;;;;;4812524;29;20149;-84
2022/01/12 00:40:26;;;;;;;82.03;25.00;;;2.70;99.90;;;;;;4830358;29;20103;-85
2022/01/12 00:42:53;;;;;;;85.68;26.75;;;2.80;99.90;;;;;;4824014;29;20061;-85
2022/01/12 00:45:20;;;;;;;78.07;26.73;;;2.70;99.90;;;;;;4832857;29;20053;-85
2022/01/12 00:47:45;;;;;;;92.20;27.45;;;3.10;99.90;;;;;;4842273;29;20057;-84
2022/01/12 00:50:11;;;;;;;81.13;25.17;;;3.40;99.90;;;;;;4823442;29;20053;-84
2022/01/12 00:52:37;;;;;;;94.95;28.60;;;3.00;99.90;;;;;;4823384;29;20046;-87
2022/01/12 00:55:04;;;;;;;73.10;25.20;;;2.70;99.90;;;;;;4831877;29;20050;-84
2022/01/12 00:57:31;;;;;;;89.28;24.75;;;2.70;99.90;;;;;;4830947;29;20657;-85
2022/01/12 00:59:57;;;;;;;85.13;26.63;;;3.40;99.90;;;;;;4822853;29;20191;-84
2022/01/12 01:02:22;;;;;;;96.65;27.08;;;2.70;99.90;;;;;;4824397;29;20046;-84
2022/01/12 01:04:48;;;;;;;91.80;26.77;;;2.70;99.90;;;;;;4838870;29;20488;-85
2022/01/12 01:07:14;;;;;;;93.95;25.95;;;3.80;99.90;;;;;;4824207;29;20489;-85
2022/01/12 01:09:46;;;;;;;100.85;29.42;;;2.70;99.90;;;;;;4834206;29;20453;-87
2022/01/12 01:12:12;;;;;;;91.35;27.05;;;2.90;99.90;;;;;;4842025;29;20073;-85
2022/01/12 01:14:48;;;;;;;84.95;27.85;;;2.70;99.90;;;;;;4829141;29;20484;-85
2022/01/12 01:25:36;;;;;;;82.68;27.15;;;2.70;99.90;;;;;;4828561;29;20061;-84
2022/01/12 01:28:04;;;;;;;90.75;28.05;;;2.70;99.90;;;;;;4841550;29;20058;-85
2022/01/12 01:30:31;;;;;;;92.38;27.95;;;2.70;99.90;;;;;;4826507;29;20062;-86
2022/01/12 01:33:04;;;;;;;81.47;26.25;;;2.70;99.90;;;;;;4841341;29;20106;-84
2022/01/12 01:35:31;;;;;;;75.00;26.63;;;3.30;99.90;;;;;;4834789;29;20400;-85
2022/01/12 01:37:59;;;;;;;79.68;26.42;;;2.80;99.90;;;;;;4826329;29;20132;-84
2022/01/12 01:40:26;;;;;;;74.68;26.05;;;2.80;99.90;;;;;;4841663;29;20200;-84
2022/01/12 01:53:43;;;;;;;71.43;26.10;;;3.50;99.90;;;;;;4840664;29;20095;-86
2022/01/12 01:56:10;;;;;;;72.22;25.20;;;3.30;99.90;;;;;;4841311;29;20105;-84
2022/01/12 01:58:35;;;;;;;;;;;2.80;99.90;;;;;;4841645;29;20058;-85
2022/01/12 02:01:01;;;;;;;74.82;24.17;;;3.10;99.90;;;;;;4825487;29;20056;-85
2022/01/12 02:03:29;;;;;;;68.20;23.83;;;2.80;99.90;;;;;;4833882;29;20061;-84
2022/01/12 02:05:56;;;;;;;69.90;24.73;;;2.90;99.90;;;;;;4844568;29;20423;-85
2022/01/12 02:08:22;;;;;;;80.28;26.23;;;3.20;99.90;;;;;;4859607;29;20048;-84
2022/01/12 02:10:54;;;;;;;;;;;2.80;99.90;;;;;;4859902;29;20056;-85
2022/01/12 02:13:20;;;;;;;79.63;26.30;;;2.80;99.90;;;;;;4842065;29;19972;-86
2022/01/12 02:15:47;;;;;;;85.88;27.55;;;2.80;99.90;;;;;;4840070;29;20452;-88
2022/01/12 02:40:22;;;;;;;147.23;34.38;;;2.80;99.90;;;;;;4840916;29;20053;-84
2022/01/12 02:43:03;;;;;;;167.15;35.67;;;2.90;99.90;;;;;;4840439;29;20049;-84
2022/01/12 02:51:11;;;;;;;159.48;36.67;;;3.00;99.90;;;;;;4827729;29;20417;-85
2022/01/12 02:53:39;;;;;;;170.25;37.08;;;2.90;99.90;;;;;;4827547;29;20126;-84
2022/01/12 02:56:06;;;;;;;188.13;38.78;;;2.90;99.90;;;;;;4825101;29;20082;-84
2022/01/12 02:58:31;;;;;;;189.20;37.75;;;2.90;99.90;;;;;;4840049;29;20049;-87
2022/01/12 03:03:44;;;;;;;285.38;41.80;;;3.50;99.90;;;;;;4827932;29;20676;-84
2022/01/12 03:06:16;;;;;;;250.40;41.13;;;3.60;99.90;;;;;;4840468;29;20056;-84
2022/01/12 03:08:42;;;;;;;276.65;42.90;;;3.00;99.90;;;;;;4825543;29;20110;-85
2022/01/12 03:11:11;;;;;;;269.75;42.05;;;3.10;99.90;;;;;;4840409;29;20484;-85
2022/01/12 03:13:37;;;;;;;342.80;44.47;;;3.10;99.90;;;;;;4825155;29;20081;-84
2022/01/12 03:16:12;;;;;;;284.20;42.10;;;3.00;99.90;;;;;;4824729;29;20042;-85
2022/01/12 03:18:38;;;;;;;281.50;43.15;;;3.00;99.90;;;;;;4822840;29;20054;-84
2022/01/12 03:21:04;;;;;;;315.48;44.08;;;3.10;99.90;;;;;;4822258;29;20070;-84
2022/01/12 03:23:31;;;;;;;;;;;3.10;99.90;;;;;;4807463;29;20050;-85
2022/01/12 03:25:56;;;;;;;350.33;45.08;;;3.40;99.90;;;;;;4822326;29;19925;-87
2022/01/12 03:28:23;;;;;;;307.50;44.97;;;3.00;99.90;;;;;;4822338;29;20385;-85
2022/01/12 03:30:58;;;;;;;356.23;45.78;;;3.00;99.90;;;;;;4822046;29;20465;-84
2022/01/12 03:38:47;;;;;;;259.83;40.85;;;3.00;99.90;;;;;;4825446;29;20095;-85
2022/01/12 03:41:13;;;;;;;366.98;46.85;;;3.10;99.90;;;;;;4825229;29;20050;-84
2022/01/12 03:43:39;;;;;;;420.20;49.67;;;3.00;99.90;;;;;;4809865;29;20546;-84
2022/01/12 03:46:05;;;;;;;412.20;48.60;;;3.40;99.90;;;;;;4825060;29;20146;-85
2022/01/12 03:48:31;;;;;;;334.02;45.03;;;3.10;99.90;;;;;;4825550;29;20073;-82
2022/01/12 03:50:57;;;;;;;448.98;51.63;;;3.20;99.90;;;;;;4825604;29;20483;-82
2022/01/12 03:53:24;;;;;;;417.65;50.50;;;3.10;99.90;;;;;;4825172;29;20054;-82
2022/01/12 03:55:50;;;;;;;386.38;48.33;;;3.10;99.90;;;;;;4809988;29;20442;-82
2022/01/12 03:58:16;;;;;;;472.23;54.05;;;3.10;99.90;;;;;;4824881;29;20469;-83
2022/01/12 04:00:42;;;;;;;408.50;47.45;;;3.10;99.90;;;;;;4809819;29;20133;-82
2022/01/12 04:03:08;;;;;;;353.02;42.15;;;3.50;99.90;;;;;;4809802;29;20042;-82
2022/01/12 04:08:20;;;;;;;401.63;50.72;;;3.20;99.90;;;;;;4825041;29;20061;-84
2022/01/12 04:10:46;;;;;;;381.42;48.45;;;3.10;99.90;;;;;;4811542;29;20556;-82
2022/01/12 04:13:13;;;;;;;379.70;47.58;;;3.10;99.90;;;;;;4840025;29;20050;-83
2022/01/12 04:15:40;;;;;;;441.00;50.10;;;3.10;99.90;;;;;;4824607;29;20466;-83
2022/01/12 04:18:06;;;;;;;388.42;46.80;;;3.20;99.90;;;;;;4827548;29;20046;-84
2022/01/12 04:20:32;;;;;;;400.73;50.42;;;3.10;99.90;;;;;;4828100;29;20110;-83
2022/01/12 04:25:42;;;;;;;319.67;41.83;;;3.20;99.90;;;;;;4843229;29;20553;-83
2022/01/12 04:28:07;;;;;;;307.60;44.65;;;3.20;99.90;;;;;;4827282;29;20046;-84
2022/01/12 04:30:33;;;;;;;351.33;44.72;;;3.80;99.90;;;;;;4842395;29;20049;-83
2022/01/12 04:32:59;;;;;;;302.85;42.50;;;3.80;99.90;;;;;;4843151;29;20085;-83
2022/01/12 04:35:30;;;;;;;331.42;45.80;;;3.20;99.90;;;;;;4826958;29;20065;-83
2022/01/12 04:37:56;;;;;;;305.45;42.10;;;3.20;99.90;;;;;;4827769;29;20404;-83
2022/01/12 04:40:21;;;;;;;394.98;47.40;;;3.20;99.90;;;;;;4827069;29;20136;-83
2022/01/12 04:42:47;;;;;;;358.60;45.88;;;3.30;99.90;;;;;;4827389;29;20093;-83
2022/01/12 04:45:36;;;;;;;267.20;41.83;;;3.40;99.90;;;;;;4841844;29;20049;-83
2022/01/12 04:50:45;;;;;;;267.92;41.38;;;3.20;99.90;;;;;;4833576;29;20097;-83
2022/01/12 04:53:12;;;;;;;282.67;40.92;;;3.70;99.90;;;;;;4808676;29;20110;-84
2022/01/12 04:55:38;;;;;;;312.58;44.22;;;3.20;99.90;;;;;;4825276;29;20053;-83
2022/01/12 04:58:05;;;;;;;314.27;43.10;;;3.60;99.90;;;;;;4842395;29;20066;-83
2022/01/12 05:00:33;;;;;;;286.40;42.95;;;3.20;99.90;;;;;;4841531;29;20488;-83
2022/01/12 05:13:45;;;;;;;207.98;38.10;;;3.20;99.90;;;;;;4842019;29;20066;-83
2022/01/12 05:16:11;;;;;;;240.40;39.03;;;3.20;99.90;;;;;;4826809;29;20085;-84
2022/01/12 05:18:38;;;;;;;189.80;35.85;;;3.40;99.90;;;;;;4841994;29;20108;-84
2022/01/12 05:21:05;;;;;;;226.07;38.17;;;3.30;99.90;;;;;;4827196;29;20476;-83
2022/01/12 05:23:31;;;;;;;218.45;38.10;;;3.20;99.90;;;;;;4841761;29;20057;-84
2022/01/12 05:25:58;;;;;;;203.45;37.60;;;3.20;99.90;;;;;;4826894;29;20057;-83
2022/01/12 05:28:25;;;;;;;182.63;34.88;;;3.10;99.90;;;;;;4841682;29;20488;-83
2022/01/12 05:30:52;;;;;;;207.77;35.67;;;3.10;99.90;;;;;;4826704;29;20057;-83
2022/01/12 05:33:18;;;;;;;197.95;36.25;;;3.10;99.90;;;;;;4835006;29;20069;-83
2022/01/12 05:35:44;;;;;;;207.60;35.78;;;3.10;99.90;;;;;;4825670;29;20547;-83
2022/01/12 05:38:12;;;;;;;196.45;34.25;;;3.00;99.90;;;;;;4841222;29;20145;-83
2022/01/12 05:40:45;;;;;;;214.77;36.20;;;3.00;99.90;;;;;;4826527;29;20113;-83
2022/01/12 05:43:10;;;;;;;288.25;40.10;;;3.00;99.90;;;;;;4841697;29;20496;-83
2022/01/12 05:45:39;;;;;;;230.45;38.17;;;2.90;99.90;;;;;;4840897;29;20120;-83
2022/01/12 05:50:34;;;;;;;196.73;35.03;;;2.80;99.90;;;;;;4822940;29;20058;-84
2022/01/12 05:52:59;;;;;;;237.90;37.97;;;2.70;99.90;;;;;;4832837;29;20103;-83
2022/01/12 05:55:25;;;;;;;334.83;42.17;;;2.80;99.90;;;;;;4840977;29;20742;-83
2022/01/12 05:57:51;;;;;;;326.13;40.53;;;2.60;99.90;;;;;;4825591;29;20049;-83
2022/01/12 06:00:19;;;;;;;280.88;37.58;;;2.60;99.90;;;;;;4840510;29;20057;-86
2022/01/12 06:02:44;;;;;;;260.90;37.25;;;2.60;99.90;;;;;;4826417;29;20050;-82
2022/01/12 06:05:10;;;;;;;212.23;37.13;;;2.50;99.90;;;;;;4826539;29;20065;-83
2022/01/12 06:07:36;;;;;;;233.57;37.97;;;2.50;99.90;;;;;;4810584;29;20059;-83
2022/01/12 06:10:02;;;;;;;216.70;36.25;;;2.90;99.90;;;;;;4810928;29;20057;-82
2022/01/12 06:12:28;;;;;;;206.77;37.47;;;2.50;99.90;;;;;;4840786;29;20046;-84
2022/01/12 06:14:54;;;;;;;218.90;37.58;;;2.60;99.90;;;;;;4840604;29;20499;-83
2022/01/12 06:17:20;;;;;;;224.73;36.05;;;3.30;99.90;;;;;;4841052;29;20049;-86
2022/01/12 06:19:46;;;;;;;221.75;38.65;;;2.60;99.90;;;;;;4841148;29;20102;-83
2022/01/12 06:22:11;;;;;;;217.95;36.50;;;2.70;99.90;;;;;;4841236;29;20089;-83
2022/01/12 06:24:37;;;;;;;196.32;35.45;;;3.20;99.90;;;;;;4840654;29;20339;-83
2022/01/12 06:27:04;;;;;;;254.20;38.70;;;2.70;99.90;;;;;;4826125;29;20050;-83
2022/01/12 06:32:15;;;;;;;217.02;38.28;;;2.70;99.90;;;;;;4841184;29;20099;-83
2022/01/12 06:34:41;;;;;;;187.18;36.40;;;2.80;99.90;;;;;;4825130;29;20691;-83
2022/01/12 06:37:07;;;;;;;203.80;35.38;;;2.80;99.90;;;;;;4840295;29;20141;-84
2022/01/12 06:39:33;;;;;;;218.45;36.40;;;3.20;99.90;;;;;;4806336;29;20057;-83
2022/01/12 06:41:58;;;;;;;168.90;33.72;;;3.10;99.90;;;;;;4822642;29;20058;-83
2022/01/12 06:44:25;;;;;;;193.40;36.30;;;2.80;99.90;;;;;;4801660;29;20057;-83
2022/01/12 06:46:52;;;;;;;205.05;36.65;;;2.90;99.90;;;;;;4810783;29;20438;-83
2022/01/12 06:49:19;;;;;;;226.48;38.17;;;2.90;99.90;;;;;;4825767;29;20097;-83
2022/01/12 06:51:46;;;;;;;185.90;37.22;;;2.90;99.90;;;;;;4825433;29;20046;-83
2022/01/12 06:54:13;;;;;;;205.18;36.33;;;2.90;99.90;;;;;;4840315;29;20045;-85
2022/01/12 06:56:39;;;;;;;190.50;34.53;;;3.00;99.90;;;;;;4824916;29;20052;-83
2022/01/12 06:59:06;;;;;;;195.77;34.85;;;2.90;99.90;;;;;;4840149;29;20050;-83
2022/01/12 07:01:32;;;;;;;164.27;32.78;;;3.70;99.90;;;;;;4840404;29;20053;-83
2022/01/12 07:03:58;;;;;;;203.75;34.03;;;2.90;99.90;;;;;;4840767;29;20057;-82
2022/01/12 07:06:24;;;;;;;;;;;3.40;99.90;;;;;;4841215;29;20123;-85
2022/01/12 07:08:50;;;;;;;201.63;33.90;;;3.50;99.90;;;;;;4840134;29;19932;-83
2022/01/12 07:11:16;;;;;;;166.50;32.05;;;2.80;99.90;;;;;;4828831;29;20054;-82
2022/01/12 07:13:42;;;;;;;194.23;35.28;;;2.70;99.90;;;;;;4828432;29;20056;-83
2022/01/12 07:16:08;;;;;;;;;;;2.70;99.90;;;;;;4844392;29;20075;-83
2022/01/12 07:18:33;;;;;;;284.45;36.50;;;2.60;99.90;;;;;;4843758;29;20019;-83
2022/01/12 07:20:59;;;;;;;203.38;35.20;;;2.60;99.90;;;;;;4829149;29;20101;-83
2022/01/12 07:23:26;;;;;;;216.20;35.50;;;2.60;99.90;;;;;;4828774;29;20058;-84
2022/01/12 07:25:52;;;;;;;209.40;35.85;;;3.00;99.90;;;;;;4828693;29;20054;-85
2022/01/12 07:28:19;;;;;;;217.63;37.25;;;2.60;99.90;;;;;;4813669;29;20065;-83
2022/01/12 07:30:45;;;;;;;215.40;36.10;;;2.60;99.90;;;;;;4828047;29;20061;-82
2022/01/12 07:33:13;;;;;;;217.57;36.33;;;2.60;99.90;;;;;;4813569;29;20056;-83
2022/01/12 07:35:39;;;;;;;220.07;37.45;;;3.10;99.90;;;;;;4827521;29;20202;-82
2022/01/12 07:38:05;;;;;;;233.30;37.40;;;2.60;99.90;;;;;;4843928;29;20121;-83
2022/01/12 07:40:33;;;;;;;158.90;32.97;;;2.70;99.90;;;;;;4812822;29;20136;-84
2022/01/12 07:42:59;;;;;;;186.10;33.90;;;2.70;99.90;;;;;;4843492;29;20064;-83
2022/01/12 07:45:25;;;;;;;247.95;34.88;;;2.60;99.90;;;;;;4827654;29;20057;-83
2022/01/12 07:47:51;;;;;;;219.65;35.33;;;2.60;99.90;;;;;;4842943;29;20045;-84
2022/01/12 07:50:17;;;;;;;268.95;38.30;;;2.60;99.90;;;;;;4843090;29;20050;-84
2022/01/12 07:52:42;;;;;;;281.85;36.20;;;2.60;99.90;;;;;;4842306;29;20052;-84
2022/01/12 07:55:08;;;;;;;390.92;41.17;;;2.60;99.90;;;;;;4827450;29;20059;-84
2022/01/12 07:57:34;;;;;;;321.52;38.83;;;2.60;99.90;;;;;;4794047;29;20409;-85
2022/01/12 08:00:00;;;;;;;226.90;36.22;;;2.60;99.90;;;;;;4808807;29;20046;-85
2022/01/12 08:02:26;;;;;;;276.00;37.13;;;2.60;99.90;;;;;;4794485;29;20093;-85
2022/01/12 08:04:51;;;;;;;215.40;35.60;;;2.70;99.90;;;;;;4823811;29;20049;-85
2022/01/12 08:07:17;;;;;;;190.35;34.22;;;3.30;99.90;;;;;;4813391;29;20060;-84
2022/01/12 08:09:44;;;;;;;213.88;32.97;;;2.70;99.90;;;;;;4841216;29;20042;-84
2022/01/12 08:12:10;;;;;;;153.93;30.98;;;2.70;99.90;;;;;;4827533;29;20404;-84
2022/01/12 08:14:36;;;;;;;151.45;28.42;;;2.70;99.90;;;;;;4810890;29;20132;-84
2022/01/12 08:17:03;;;;;;;138.10;28.70;;;2.70;99.90;;;;;;4827183;29;20177;-84
2022/01/12 08:19:30;;;;;;;162.95;28.42;;;2.70;99.90;;;;;;4841240;29;20046;-85
2022/01/12 08:21:56;;;;;;;119.80;26.55;;;2.70;99.90;;;;;;4841321;29;20064;-86
2022/01/12 08:24:22;;;;;;;117.95;26.27;;;2.60;99.90;;;;;;4827011;29;20062;-85
2022/01/12 08:26:48;;;;;;;131.50;26.40;;;2.60;99.90;;;;;;4826959;29;20053;-85
2022/01/12 08:29:15;;;;;;;123.90;25.75;;;2.70;99.90;;;;;;4825702;29;20084;-86
2022/01/12 08:31:43;;;;;;;131.93;26.38;;;2.50;99.90;;;;;;4826786;29;20064;-86
2022/01/12 08:34:10;;;;;;;195.95;29.42;;;2.40;99.90;;;;;;4827263;29;20050;-85
2022/01/12 08:36:38;;;;;;;220.18;32.80;;;2.50;99.90;;;;;;4825939;29;20420;-85
2022/01/12 08:39:07;;;;;;;281.70;32.20;;;2.40;99.90;;;;;;4841141;29;20058;-85
2022/01/12 08:41:33;;;;;;;209.35;28.45;;;3.00;99.90;;;;;;4839449;29;20054;-84
2022/01/12 08:43:58;;;;;;;166.10;27.30;;;2.90;99.90;;;;;;4810197;29;20065;-85
2022/01/12 08:46:24;;;;;;;201.82;30.85;;;2.30;99.90;;;;;;4811023;29;20145;-84
2022/01/12 08:48:50;;;;;;;196.70;30.30;;;3.10;99.90;;;;;;4841327;29;20386;-84
2022/01/12 08:51:16;;;;;;;292.80;34.92;;;2.30;99.90;;;;;;4811555;29;20123;-84
2022/01/12 08:53:41;;;;;;;353.70;35.35;;;2.40;99.90;;;;;;4841018;29;20053;-86
2022/01/12 08:56:07;;;;;;;522.15;46.33;;;2.40;99.90;;;;;;4841370;29;20184;-85
2022/01/12 08:58:34;;;;;;;238.00;31.17;;;2.60;99.90;;;;;;4823790;29;20110;-85
2022/01/12 09:01:03;;;;;;;253.65;32.17;;;2.60;99.90;;;;;;4839082;29;20534;-84
2022/01/12 09:03:32;;;;;;;199.27;30.65;;;2.40;99.90;;;;;;4840066;29;20137;-85
2022/01/12 09:05:58;;;;;;;162.95;28.65;;;2.40;99.90;;;;;;4794119;29;20077;-85
2022/01/12 09:08:24;;;;;;;159.60;27.98;;;2.40;99.90;;;;;;4836506;29;20054;-85
2022/01/12 09:10:50;;;;;;;140.40;25.77;;;2.90;99.90;;;;;;4837313;29;20473;-86
2022/01/12 09:13:16;;;;;;;147.20;27.42;;;2.60;99.90;;;;;;4838878;29;20492;-82
2022/01/12 09:15:41;;;;;;;141.13;26.30;;;2.60;99.90;;;;;;4832688;29;20049;-85
2022/01/12 09:18:07;;;;;;;155.63;25.63;;;2.80;99.90;;;;;;4839533;29;20045;-84
2022/01/12 09:20:33;;;;;;;128.63;25.33;;;2.80;99.90;;;;;;4839142;29;20073;-85
2022/01/12 09:22:59;;;;;;;132.30;25.40;;;2.90;99.90;;;;;;4823095;29;20128;-86
2022/01/12 09:25:25;;;;;;;157.55;28.38;;;3.00;99.90;;;;;;4835929;29;20046;-84
2022/01/12 09:27:51;;;;;;;;;;;3.10;99.90;;;;;;4821340;29;20058;-85
2022/01/12 09:30:18;;;;;;;144.13;25.00;;;3.50;99.90;;;;;;4821130;29;19925;-85
2022/01/12 09:32:45;;;;;;;134.77;25.25;;;3.90;99.90;;;;;;4838822;29;20058;-86
2022/01/12 09:35:11;;;;;;;;;;;3.40;99.90;;;;;;4839424;29;20405;-85
2022/01/12 09:37:37;;;;;;;106.55;24.55;;;3.50;99.90;;;;;;4809959;29;20011;-85
2022/01/12 09:40:05;;;;;;;123.22;23.92;;;3.50;99.90;;;;;;4839535;29;20408;-85
2022/01/12 09:42:32;;;;;;;104.45;21.48;;;3.60;99.90;;;;;;4821707;29;20062;-85
2022/01/12 09:44:58;;;;;;;104.97;20.70;;;4.00;99.90;;;;;;4823571;29;20053;-85
2022/01/12 09:47:24;;;;;;;106.97;21.67;;;4.00;99.90;;;;;;4840143;29;20042;-85
2022/01/12 09:49:49;;;;;;;106.60;20.92;;;3.90;99.90;;;;;;4829023;29;20054;-85
2022/01/12 09:52:15;;;;;;;107.95;21.45;;;3.90;99.90;;;;;;4837676;29;20420;-85
2022/01/12 09:54:41;;;;;;;81.78;18.60;;;4.00;99.90;;;;;;4833566;29;20057;-86
2022/01/12 09:57:07;;;;;;;86.10;20.13;;;4.10;99.90;;;;;;4832429;29;20054;-86
2022/01/12 09:59:33;;;;;;;75.00;17.85;;;4.10;99.90;;;;;;4826206;29;20113;-87
2022/01/12 10:01:59;;;;;;;69.47;17.83;;;4.20;99.90;;;;;;4828278;29;20054;-89
2022/01/12 10:04:28;;;;;;;75.85;16.80;;;4.20;99.90;;;;;;4831043;29;20130;-85
2022/01/12 10:06:58;;;;;;;79.25;17.85;;;4.20;99.90;;;;;;4833310;29;20058;-87
2022/01/12 10:09:31;;;;;;;70.65;16.88;;;4.50;99.90;;;;;;4821964;29;20046;-87
2022/01/12 10:12:04;;;;;;;86.40;16.65;;;4.30;99.90;;;;;;4835401;29;20046;-85
2022/01/12 10:14:52;;;;;;;89.80;18.90;;;4.30;99.90;;;;;;4819170;29;20090;-85
2022/01/12 10:17:19;;;;;;;83.13;17.48;;;4.30;99.90;;;;;;4834367;29;20093;-85
2022/01/12 10:19:46;;;;;;;70.40;14.60;;;4.30;99.90;;;;;;4818694;29;20085;-87
2022/01/12 10:22:17;;;;;;;70.30;14.20;;;4.40;99.90;;;;;;4820633;29;20137;-84
2022/01/12 10:24:45;;;;;;;62.50;13.60;;;4.80;99.90;;;;;;4818374;29;20050;-84
2022/01/12 10:27:19;;;;;;;62.28;13.88;;;4.70;99.90;;;;;;4825873;29;20362;-85
2022/01/12 10:29:54;;;;;;;59.97;12.10;;;4.50;99.90;;;;;;4819098;29;20165;-85
2022/01/12 10:32:20;;;;;;;55.22;11.43;;;4.70;99.90;;;;;;4821465;29;20054;-84
2022/01/12 10:34:48;;;;;;;47.03;10.70;;;4.50;99.90;;;;;;4838345;29;20045;-84
2022/01/12 10:37:26;;;;;;;51.95;12.27;;;4.60;99.90;;;;;;4839411;29;20046;-84
2022/01/12 10:39:54;;;;;;;45.30;9.70;;;4.60;99.90;;;;;;4830519;29;20125;-85
2022/01/12 10:42:22;;;;;;;49.95;10.25;;;4.70;99.90;;;;;;4835134;29;20137;-84
2022/01/12 10:44:51;;;;;;;47.78;9.75;;;4.70;99.90;;;;;;4816491;29;20064;-85
2022/01/12 10:47:21;;;;;;;46.47;9.23;;;4.70;99.90;;;;;;4814469;29;20058;-84
2022/01/12 10:49:56;;;;;;;37.85;7.22;;;4.80;99.90;;;;;;4821001;29;20058;-85
2022/01/12 10:52:23;;;;;;;29.90;7.55;;;5.20;99.90;;;;;;4835492;29;20122;-84
2022/01/12 10:54:58;;;;;;;33.47;7.22;;;4.90;99.90;;;;;;4823150;29;20465;-85
2022/01/12 10:57:29;;;;;;;47.80;9.13;;;5.00;99.90;;;;;;4823307;29;20057;-85
2022/01/12 11:00:24;;;;;;;28.10;7.95;;;5.10;99.90;;;;;;4831584;29;20129;-84
2022/01/12 11:02:55;;;;;;;34.33;7.10;;;5.10;99.90;;;;;;4814413;29;20165;-85
2022/01/12 11:05:24;;;;;;;30.45;5.60;;;5.10;99.90;;;;;;4830237;29;20057;-84
2022/01/12 11:07:51;;;;;;;29.33;6.15;;;5.10;99.90;;;;;;4838628;29;20556;-85
2022/01/12 11:10:19;;;;;;;31.30;7.22;;;5.10;99.90;;;;;;4832981;29;20053;-84
2022/01/12 11:12:46;;;;;;;28.65;6.90;;;5.20;99.90;;;;;;4826592;29;20053;-84
2022/01/12 11:15:13;;;;;;;29.13;6.95;;;5.10;99.90;;;;;;4819174;29;20106;-84
2022/01/12 11:17:42;;;;;;;32.72;7.43;;;5.20;99.90;;;;;;4822752;29;20465;-84
2022/01/12 11:20:28;;;;;;;34.00;7.80;;;5.10;99.90;;;;;;4823384;29;20054;-84
2022/01/12 11:23:11;;;;;;;34.95;6.63;;;5.10;99.90;;;;;;4835326;29;20054;-86
2022/01/12 11:25:47;;;;;;;32.60;6.13;;;5.10;99.90;;;;;;4820604;29;20050;-85
2022/01/12 11:28:17;;;;;;;36.67;7.00;;;5.20;99.90;;;;;;4834354;29;20046;-85
2022/01/12 11:30:53;;;;;;;36.17;7.95;;;5.20;99.90;;;;;;4834803;29;20479;-85
2022/01/12 11:33:22;;;;;;;31.83;7.78;;;5.50;99.90;;;;;;4812937;29;20531;-85
2022/01/12 11:35:50;;;;;;;24.88;6.78;;;5.30;99.90;;;;;;4835559;29;20462;-85
2022/01/12 11:38:31;;;;;;;27.80;6.10;;;5.30;99.90;;;;;;4821714;29;20046;-85
2022/01/12 11:41:15;;;;;;;30.83;7.03;;;5.20;99.90;;;;;;4836460;29;20054;-85
2022/01/12 11:43:45;;;;;;;35.10;6.90;;;5.20;99.90;;;;;;4833960;29;20125;-84
2022/01/12 11:46:16;;;;;;;37.20;6.50;;;5.50;99.90;;;;;;4835181;29;20090;-86
2022/01/12 11:48:44;;;;;;;41.28;7.22;;;5.50;99.90;;;;;;4838319;29;20057;-84
2022/01/12 11:51:11;;;;;;;45.08;7.80;;;5.40;99.90;;;;;;4837846;29;20058;-84
2022/01/12 11:53:55;;;;;;;30.23;5.65;;;5.30;99.90;;;;;;4838578;29;20052;-84
2022/01/12 11:56:26;;;;;;;34.13;6.75;;;5.30;99.90;;;;;;4830880;29;20057;-84
2022/01/12 11:58:59;;;;;;;33.15;7.07;;;5.60;99.90;;;;;;4823012;29;20532;-84
2022/01/12 12:01:37;;;;;;;32.72;6.22;;;5.50;99.90;;;;;;4839398;29;20066;-84
2022/01/12 12:04:04;;;;;;;32.33;6.75;;;6.00;99.90;;;;;;4839147;29;20540;-85
2022/01/12 12:06:31;;;;;;;30.08;6.20;;;5.70;99.90;;;;;;4823900;29;20054;-83
2022/01/12 12:09:17;;;;;;;27.60;6.32;;;5.80;99.90;;;;;;4839566;29;20050;-84
2022/01/12 12:11:51;;;;;;;29.25;6.20;;;5.80;99.90;;;;;;4838748;29;20046;-84
2022/01/12 12:14:18;;;;;;;24.90;7.10;;;5.60;99.90;;;;;;4822981;29;20734;-83
2022/01/12 12:16:44;;;;;;;28.35;6.93;;;5.50;99.90;;;;;;4834232;29;20515;-84
2022/01/12 12:19:10;;;;;;;31.92;7.93;;;5.40;99.90;;;;;;4833225;29;20193;-84
2022/01/12 12:21:36;;;;;;;34.83;7.93;;;5.40;99.90;;;;;;4785731;29;20145;-84
2022/01/12 12:24:09;;;;;;;42.60;8.90;;;5.40;99.90;;;;;;4838588;29;20058;-86
2022/01/12 12:26:42;;;;;;;40.15;8.02;;;5.40;99.90;;;;;;4838985;29;20054;-82
2022/01/12 12:29:08;;;;;;;29.70;6.90;;;5.30;99.90;;;;;;4838621;29;20065;-83
2022/01/12 12:31:34;;;;;;;28.58;6.75;;;5.40;99.90;;;;;;4840537;29;20053;-81
2022/01/12 12:34:02;;;;;;;30.25;7.18;;;5.40;99.90;;;;;;4840960;29;20484;-81
2022/01/12 12:36:28;;;;;;;32.85;8.07;;;5.50;99.90;;;;;;4840401;29;20629;-81
2022/01/12 12:39:05;;;;;;;26.45;6.75;;;5.60;99.90;;;;;;4841299;29;20136;-85
2022/01/12 12:41:39;;;;;;;35.53;8.75;;;5.60;99.90;;;;;;4836494;29;20113;-82
2022/01/12 12:44:06;;;;;;;36.00;7.50;;;5.70;99.90;;;;;;4822052;29;20061;-83
2022/01/12 12:46:31;;;;;;;29.45;6.70;;;5.70;99.90;;;;;;4825834;29;20413;-82
2022/01/12 12:48:57;;;;;;;28.25;8.32;;;6.10;99.90;;;;;;4822091;29;20055;-83
2022/01/12 12:51:23;;;;;;;32.85;7.55;;;5.80;99.90;;;;;;4806331;29;20046;-82
2022/01/12 12:53:54;;;;;;;29.67;7.25;;;5.80;99.90;;;;;;4822404;29;20390;-82
2022/01/12 12:56:23;;;;;;;27.75;7.03;;;5.80;99.90;;;;;;4821988;29;20054;-81
2022/01/12 12:58:50;;;;;;;24.92;7.07;;;5.80;99.90;;;;;;4820948;29;20062;-81
2022/01/12 13:01:17;;;;;;;22.55;6.63;;;6.20;99.90;;;;;;4811386;29;20058;-82
2022/01/12 13:03:49;;;;;;;29.25;7.97;;;5.90;99.90;;;;;;4839299;29;20050;-81
2022/01/12 13:06:27;;;;;;;31.88;7.30;;;6.40;99.90;;;;;;4835735;29;20090;-82
2022/01/12 13:08:55;;;;;;;23.50;6.47;;;5.90;99.90;;;;;;4837368;29;20089;-82
2022/01/12 13:11:34;;;;;;;26.27;6.85;;;5.90;99.90;;;;;;4821889;29;20141;-85
2022/01/12 13:29:44;;;;;;;27.50;7.03;;;6.30;99.90;;;;;;4839160;29;20544;-82
2022/01/12 13:37:27;;;;;;;28.75;5.50;;;6.90;99.90;;;;;;4830796;29;20068;-82
2022/01/12 13:40:42;;;;;;;23.80;7.13;;;6.90;99.90;;;;;;4890965;29;20066;-82
2022/01/12 13:43:08;;;;;;;;;;;6.90;99.90;;;;;;4879633;29;20072;-80
2022/01/12 13:45:42;;;;;;;22.60;6.63;;;6.40;99.90;;;;;;4893754;29;19923;-81
2022/01/12 13:48:13;;;;;;;21.83;6.72;;;6.40;99.90;;;;;;4897190;29;20481;-81
2022/01/12 13:50:43;;;;;;;20.08;5.85;;;6.20;99.90;;;;;;4907850;29;20052;-84
2022/01/12 13:53:09;;;;;;;25.90;7.25;;;6.10;99.90;;;;;;4898322;29;20520;-85
2022/01/12 13:55:36;;;;;;;24.92;6.93;;;6.10;99.90;;;;;;4880876;29;20127;-84
2022/01/12 13:58:09;;;;;;;29.73;7.55;;;6.10;99.90;;;;;;4895528;29;20060;-84
2022/01/12 14:00:37;;;;;;;32.47;7.60;;;6.10;99.90;;;;;;4894863;29;20110;-83
2022/01/12 14:03:18;;;;;;;31.60;7.25;;;6.10;99.90;;;;;;4869127;29;20115;-84
2022/01/12 14:05:45;;;;;;;28.25;7.25;;;6.00;99.90;;;;;;4857526;29;20068;-85
2022/01/12 14:08:14;;;;;;;32.28;6.93;;;6.00;99.90;;;;;;4864869;29;20401;-85
2022/01/12 14:10:45;;;;;;;32.05;7.50;;;6.00;99.90;;;;;;4868921;29;20510;-83
2022/01/12 14:13:11;;;;;;;28.58;8.07;;;6.00;99.90;;;;;;4895511;29;20056;-84
2022/01/12 14:15:37;;;;;;;27.13;7.47;;;6.10;99.90;;;;;;4877970;29;20040;-85
2022/01/12 14:18:05;;;;;;;27.25;8.57;;;6.20;99.90;;;;;;4879049;29;20063;-84
2022/01/12 14:20:37;;;;;;;29.13;7.47;;;6.20;99.90;;;;;;4870242;29;20073;-84
2022/01/12 14:23:06;;;;;;;30.65;8.07;;;6.50;99.90;;;;;;4891386;29;20040;-85
2022/01/12 14:25:46;;;;;;;23.77;7.15;;;6.10;99.90;;;;;;4895517;29;20116;-85
2022/01/12 14:28:32;;;;;;;32.70;8.48;;;6.00;99.90;;;;;;4895322;29;20040;-84
2022/01/12 14:30:59;;;;;;;33.08;7.63;;;5.90;99.90;;;;;;4878335;29;20087;-85
2022/01/12 14:33:25;;;;;;;31.02;8.55;;;6.20;99.90;;;;;;4894276;29;20044;-83